Time;durP1;ratioP1;P1;durP2;ratioP2;P2;SDS_P1;SDS_P2;PMS_P1;PMS_P2;Temp;Humidity;BMP_temperature;BMP_pressure;BME280_temperature;BME280_humidity;BME280_pressure;Samples;Min_cycle;Max_cycle;Signal;HPM_P1;HPM_P2
2023/08/06 00:01:32;;;;;;;;;;;;;;;28.89;35.39;99567.84;5076461;28;1038;-25
2023/08/06 00:03:59;;;;;;;;;;;;;;;28.80;35.77;99554.63;5086562;28;1104;-26
2023/08/06 00:06:25;;;;;;;;;;;;;;;28.88;35.53;99548.06;5092799;28;1221;-29
2023/08/06 00:08:51;;;;;;;;;;;;;;;28.84;35.35;99542.28;5086766;28;1107;-24
2023/08/06 00:11:16;;;;;;;;;;;;;;;28.89;35.05;99533.50;5082436;28;1934;-27
2023/08/06 00:13:42;;;;;;;;;;;;;;;28.81;34.96;99533.81;5095784;28;1046;-24
2023/08/06 00:16:08;;;;;;;;;;;;;;;28.80;34.95;99524.00;5095964;28;1026;-27
2023/08/06 00:18:34;;;;;;;;;;;;;;;28.82;34.78;99521.91;5085968;28;1174;-23
2023/08/06 00:20:59;;;;;;;;;;;;;;;28.83;35.03;99518.97;5079706;28;1035;-29
2023/08/06 00:23:25;;;;;;;;;;;;;;;28.79;34.93;99520.50;5095680;28;1050;-25
2023/08/06 00:25:50;;;;;;;;;;;;;;;28.82;35.18;99520.03;5079526;28;1042;-25
2023/08/06 00:28:16;;;;;;;;;;;;;;;28.84;34.89;99514.41;5076293;28;1211;-26
2023/08/06 00:30:41;;;;;;;;;;;;;;;28.93;34.81;99528.44;5079410;28;1906;-25
2023/08/06 00:33:07;;;;;;;;;;;;;;;28.85;34.89;99519.59;5088843;28;1161;-25
2023/08/06 00:35:33;;;;;;;;;;;;;;;28.90;35.00;99508.09;5078900;28;1114;-28
2023/08/06 00:37:58;;;;;;;;;;;;;;;28.78;35.24;99512.59;5086205;28;1107;-24
2023/08/06 00:40:24;;;;;;;;;;;;;;;28.80;34.39;99511.31;5061337;28;1330;-26
2023/08/06 00:42:49;;;;;;;;;;;;;;;28.79;34.97;99517.78;5086398;28;1123;-24
2023/08/06 00:45:15;;;;;;;;;;;;;;;28.82;34.57;99513.78;5092347;28;1122;-24
2023/08/06 00:47:41;;;;;;;;;;;;;;;28.76;34.62;99515.50;5085800;28;1071;-27
2023/08/06 00:50:07;;;;;;;;;;;;;;;28.79;34.97;99509.66;5060958;28;1899;-27
2023/08/06 00:52:32;;;;;;;;;;;;;;;28.79;35.09;99500.72;5078725;28;1139;-26
2023/08/06 00:54:59;;;;;;;;;;;;;;;28.78;34.86;99507.19;5092185;28;1029;-24
2023/08/06 00:57:25;;;;;;;;;;;;;;;28.81;34.34;99509.44;5082089;28;1066;-25
2023/08/06 00:59:51;;;;;;;;;;;;;;;28.81;34.85;99506.75;5076715;28;1178;-25
2023/08/06 01:02:17;;;;;;;;;;;;;;;28.77;34.47;99514.47;5076126;28;1055;-25
2023/08/06 01:04:42;;;;;;;;;;;;;;;28.78;34.54;99508.00;5077781;28;1237;-25
2023/08/06 01:07:26;;;;;;;;;;;;;;;28.79;34.32;99512.38;5067714;28;1257;-25
2023/08/06 01:10:10;;;;;;;;;;;;;;;28.76;34.16;99507.38;5065793;28;1906;-26
2023/08/06 01:12:36;;;;;;;;;;;;;;;28.71;34.31;99499.16;5057667;28;1164;-25
2023/08/06 01:15:08;;;;;;;;;;;;;;;28.73;34.42;99487.03;5075823;28;1047;-26
2023/08/06 01:17:34;;;;;;;;;;;;;;;28.73;34.57;99483.50;5057894;28;1111;-25
2023/08/06 01:19:59;;;;;;;;;;;;;;;28.73;34.38;99481.63;5054073;28;1020;-28
2023/08/06 01:22:25;;;;;;;;;;;;;;;28.73;34.83;99478.91;5069867;28;1194;-27
2023/08/06 01:24:50;;;;;;;;;;;;;;;28.71;34.52;99469.38;5075195;28;908;-25
2023/08/06 01:27:31;;;;;;;;;;;;;;;28.70;33.59;99462.28;5076716;28;1034;-25
2023/08/06 01:30:00;;;;;;;;;;;;;;;28.62;34.14;99455.31;5070030;28;1976;-26
2023/08/06 01:32:25;;;;;;;;;;;;;;;28.75;34.57;99458.91;5073048;28;1062;-28
2023/08/06 01:34:51;;;;;;;;;;;;;;;28.76;34.05;99455.16;5058732;28;1078;-25
2023/08/06 01:37:17;;;;;;;;;;;;;;;28.70;34.29;99448.75;5075170;28;1156;-25
2023/08/06 01:39:42;;;;;;;;;;;;;;;28.73;34.23;99440.19;5077801;28;1090;-25
2023/08/06 01:42:08;;;;;;;;;;;;;;;28.73;33.86;99440.19;5074737;28;1058;-27
2023/08/06 01:44:33;;;;;;;;;;;;;;;28.69;34.09;99439.00;5058785;28;1161;-28
2023/08/06 01:46:59;;;;;;;;;;;;;;;28.75;34.29;99432.69;5072347;28;1118;-25
2023/08/06 01:49:25;;;;;;;;;;;;;;;28.72;34.08;99433.13;5058747;28;1986;-26
2023/08/06 01:51:50;;;;;;;;;;;;;;;28.73;33.74;99423.97;5072503;28;1143;-25
2023/08/06 01:54:16;;;;;;;;;;;;;;;28.72;33.93;99428.56;5069516;28;1010;-25
2023/08/06 01:56:41;;;;;;;;;;;;;;;28.69;33.85;99422.78;5060285;28;1494;-28
2023/08/06 01:59:07;;;;;;;;;;;;;;;28.71;33.64;99426.88;5067092;28;1307;-24
2023/08/06 02:01:32;;;;;;;;;;;;;;;28.76;33.77;99430.81;5056992;28;1131;-24
2023/08/06 02:03:58;;;;;;;;;;;;;;;28.64;33.66;99434.28;5058751;28;1063;-26
2023/08/06 02:06:24;;;;;;;;;;;;;;;28.70;33.94;99422.53;5061799;28;1117;-25
2023/08/06 02:08:49;;;;;;;;;;;;;;;28.69;34.16;99423.59;5077176;28;1070;-24
2023/08/06 02:11:15;;;;;;;;;;;;;;;28.64;33.73;99422.63;5060438;28;1969;-27
2023/08/06 02:13:41;;;;;;;;;;;;;;;28.68;33.83;99416.53;5058601;28;845;-28
2023/08/06 02:16:07;;;;;;;;;;;;;;;28.72;33.96;99408.78;5073455;28;1256;-27
2023/08/06 02:18:35;;;;;;;;;;;;;;;28.70;33.41;99403.59;5079305;28;1224;-24
2023/08/06 02:21:00;;;;;;;;;;;;;;;28.75;33.44;99393.97;5084825;28;1154;-26
2023/08/06 02:23:28;;;;;;;;;;;;;;;28.67;33.73;99384.28;5098482;28;1120;-25
2023/08/06 02:26:03;;;;;;;;;;;;;;;28.67;33.60;99384.28;5063169;28;1356;-29
2023/08/06 02:28:29;;;;;;;;;;;;;;;28.67;33.70;99382.41;5060226;28;1051;-25
2023/08/06 02:30:54;;;;;;;;;;;;;;;28.67;33.29;99376.16;5096095;28;1910;-26
2023/08/06 02:33:20;;;;;;;;;;;;;;;28.68;33.61;99369.69;5098377;28;1018;-25
2023/08/06 02:35:45;;;;;;;;;;;;;;;28.71;33.43;99383.59;5061673;28;1170;-23
2023/08/06 02:38:11;;;;;;;;;;;;;;;28.70;33.50;99383.81;5077628;28;929;-24
2023/08/06 02:40:36;;;;;;;;;;;;;;;28.68;33.48;99386.75;5074694;28;1142;-28
2023/08/06 02:43:02;;;;;;;;;;;;;;;28.66;33.65;99382.63;5079846;28;1271;-27
2023/08/06 02:45:28;;;;;;;;;;;;;;;28.70;33.18;99386.53;5093033;28;1026;-24
2023/08/06 02:47:54;;;;;;;;;;;;;;;28.65;32.69;99387.22;5089560;28;1094;-25
2023/08/06 02:50:20;;;;;;;;;;;;;;;28.66;33.41;99394.28;5097380;28;1922;-27
2023/08/06 02:52:45;;;;;;;;;;;;;;;28.66;33.07;99405.09;5079670;28;1314;-29
2023/08/06 02:55:11;;;;;;;;;;;;;;;28.65;33.13;99405.31;5065619;28;1152;-23
2023/08/06 02:57:41;;;;;;;;;;;;;;;28.66;33.26;99404.28;5066533;28;1123;-28
2023/08/06 03:00:07;;;;;;;;;;;;;;;28.65;33.55;99400.75;5075604;28;1377;-25
2023/08/06 03:02:32;;;;;;;;;;;;;;;28.70;33.53;99416.28;5074877;28;1181;-26
2023/08/06 03:05:12;;;;;;;;;;;;;;;28.69;33.55;99420.91;5066687;28;1286;-25
2023/08/06 03:07:42;;;;;;;;;;;;;;;28.64;33.40;99418.03;5078786;28;1452;-24
2023/08/06 03:10:14;;;;;;;;;;;;;;;28.64;33.09;99422.63;5071123;28;1979;-26
2023/08/06 03:12:39;;;;;;;;;;;;;;;28.59;33.12;99423.31;5073537;28;1143;-28
2023/08/06 03:15:05;;;;;;;;;;;;;;;28.09;39.72;99422.31;5067868;28;1312;-27
2023/08/06 03:17:31;;;;;;;;;;;;;;;28.15;39.30;99431.41;5077361;28;1222;-24
2023/08/06 03:19:57;;;;;;;;;;;;;;;28.05;48.65;99431.91;5079185;28;1318;-27
2023/08/06 03:22:23;;;;;;;;;;;;;;;27.09;45.28;99418.19;5065830;28;1363;-25
2023/08/06 03:24:52;;;;;;;;;;;;;;;27.59;43.07;99429.31;5078132;28;1144;-25
2023/08/06 03:27:19;;;;;;;;;;;;;;;27.75;43.57;99426.13;5075212;28;1247;-29
2023/08/06 03:29:48;;;;;;;;;;;;;;;27.55;47.46;99426.22;5078972;28;1913;-25
2023/08/06 03:32:14;;;;;;;;;;;;;;;27.06;49.34;99428.59;5078352;28;1067;-28
2023/08/06 03:34:40;;;;;;;;;;;;;;;26.83;51.72;99425.31;5066100;28;2146;-30
2023/08/06 03:37:06;;;;;;;;;;;;;;;26.95;52.54;99421.94;5077664;28;1121;-28
2023/08/06 03:39:33;;;;;;;;;;;;;;;27.58;48.25;99427.66;5071694;28;1126;-28
2023/08/06 03:41:58;;;;;;;;;;;;;;;27.43;49.64;99428.78;5069169;28;1262;-28
2023/08/06 03:44:28;;;;;;;;;;;;;;;27.49;53.53;99437.91;5059133;28;1309;-27
2023/08/06 03:46:54;;;;;;;;;;;;;;;27.48;54.99;99436.25;5072493;28;1238;-30
2023/08/06 03:49:19;;;;;;;;;;;;;;;27.65;55.80;99431.16;5077557;28;1964;-28
2023/08/06 03:51:46;;;;;;;;;;;;;;;27.41;55.50;99422.78;5078670;28;1338;-26
2023/08/06 03:54:12;;;;;;;;;;;;;;;28.26;51.30;99419.03;5094381;28;1042;-23
2023/08/06 03:56:37;;;;;;;;;;;;;;;28.24;51.14;99416.56;5078013;28;1082;-24
2023/08/06 03:59:03;;;;;;;;;;;;;;;27.84;54.05;99409.63;5078274;28;1219;-25
2023/08/06 04:01:29;;;;;;;;;;;;;;;25.09;57.17;99400.88;5077580;28;1161;-27
2023/08/06 04:03:55;;;;;;;;;;;;;;;24.39;62.22;99410.66;5078446;28;1159;-24
2023/08/06 04:06:20;;;;;;;;;;;;;;;26.86;55.07;99414.09;5096179;28;1161;-29
2023/08/06 04:08:46;;;;;;;;;;;;;;;24.38;56.31;99404.44;5078330;28;1094;-25
2023/08/06 04:11:13;;;;;;;;;;;;;;;25.92;55.37;99407.03;5096314;28;1902;-24
2023/08/06 04:13:44;;;;;;;;;;;;;;;24.72;52.31;99403.78;5075771;28;1209;-26
2023/08/06 04:16:09;;;;;;;;;;;;;;;23.12;52.71;99394.03;5077918;28;1546;-25
2023/08/06 04:18:35;;;;;;;;;;;;;;;22.70;52.14;99397.25;5077668;28;1259;-26
2023/08/06 04:21:01;;;;;;;;;;;;;;;22.18;52.87;99389.06;5095964;28;998;-28
2023/08/06 04:23:27;;;;;;;;;;;;;;;22.18;52.79;99396.25;5095813;28;1019;-27
2023/08/06 04:25:57;;;;;;;;;;;;;;;22.21;52.34;99398.56;5077469;28;1264;-25
2023/08/06 04:28:23;;;;;;;;;;;;;;;21.94;52.53;99392.81;5077828;28;2464;-27
2023/08/06 04:30:49;;;;;;;;;;;;;;;21.84;52.52;99387.69;5095626;28;1918;-26
2023/08/06 04:33:14;;;;;;;;;;;;;;;21.99;56.84;99399.28;5096198;28;1034;-26
2023/08/06 04:35:41;;;;;;;;;;;;;;;24.89;45.24;99401.59;5077673;28;1151;-27
2023/08/06 04:38:06;;;;;;;;;;;;;;;26.12;43.78;99393.53;5093670;28;895;-27
2023/08/06 04:40:35;;;;;;;;;;;;;;;26.63;42.57;99393.03;5077374;28;1209;-25
2023/08/06 04:43:01;;;;;;;;;;;;;;;26.88;41.13;99384.22;5077710;28;1245;-26
2023/08/06 04:45:29;;;;;;;;;;;;;;;26.69;44.03;99372.47;5078008;28;1198;-26
2023/08/06 04:47:55;;;;;;;;;;;;;;;22.94;49.37;99373.78;5095713;28;1438;-26
2023/08/06 04:50:20;;;;;;;;;;;;;;;22.27;51.21;99366.53;5095269;28;1938;-25
2023/08/06 04:52:46;;;;;;;;;;;;;;;21.97;51.59;99360.31;5095932;28;1145;-28
2023/08/06 04:55:11;;;;;;;;;;;;;;;22.53;53.69;99359.03;5095538;28;1216;-25
2023/08/06 04:57:37;;;;;;;;;;;;;;;25.11;44.26;99351.19;5095799;28;1042;-29
2023/08/06 05:00:04;;;;;;;;;;;;;;;25.89;44.21;99358.94;5087485;28;2243;-27
2023/08/06 05:02:31;;;;;;;;;;;;;;;26.35;44.76;99348.31;5099436;28;1047;-28
2023/08/06 05:04:57;;;;;;;;;;;;;;;26.88;41.47;99349.97;5099368;28;1062;-26
2023/08/06 05:07:23;;;;;;;;;;;;;;;26.68;42.41;99346.53;5099020;28;998;-25
2023/08/06 05:09:49;;;;;;;;;;;;;;;27.21;41.03;99350.84;5099476;28;1905;-27
2023/08/06 05:12:14;;;;;;;;;;;;;;;27.07;40.68;99351.97;5099455;28;1022;-25
2023/08/06 05:14:40;;;;;;;;;;;;;;;26.89;43.56;99353.50;5098566;28;1134;-27
2023/08/06 05:17:05;;;;;;;;;;;;;;;27.42;40.19;99350.69;5099066;28;1066;-27
2023/08/06 05:19:31;;;;;;;;;;;;;;;27.09;41.98;99352.59;5098736;28;1150;-27
2023/08/06 05:21:56;;;;;;;;;;;;;;;27.61;39.57;99344.31;5099270;28;1055;-26
2023/08/06 05:24:22;;;;;;;;;;;;;;;27.49;40.85;99346.91;5085581;28;982;-27
2023/08/06 05:26:47;;;;;;;;;;;;;;;26.87;44.44;99351.03;5086425;28;835;-27
2023/08/06 05:29:13;;;;;;;;;;;;;;;27.63;39.63;99353.03;5096427;28;2333;-26
2023/08/06 05:31:39;;;;;;;;;;;;;;;27.24;41.86;99358.50;5099051;28;1976;-26
2023/08/06 05:34:04;;;;;;;;;;;;;;;27.45;42.46;99348.41;5098579;28;1158;-26
2023/08/06 05:36:30;;;;;;;;;;;;;;;27.60;40.12;99345.38;5098682;28;1011;-25
2023/08/06 05:38:55;;;;;;;;;;;;;;;26.95;43.41;99341.00;5097974;28;1041;-27
2023/08/06 05:41:21;;;;;;;;;;;;;;;27.68;39.63;99332.63;5098863;28;1042;-29
2023/08/06 05:43:46;;;;;;;;;;;;;;;27.37;41.17;99335.16;5098505;28;1097;-28
2023/08/06 05:46:12;;;;;;;;;;;;;;;27.55;42.70;99341.66;5098784;28;1079;-26
2023/08/06 05:48:38;;;;;;;;;;;;;;;27.61;39.76;99340.81;5085286;28;1067;-24
2023/08/06 05:51:03;;;;;;;;;;;;;;;26.93;43.28;99335.81;5098154;28;1984;-28
2023/08/06 05:53:29;;;;;;;;;;;;;;;27.71;39.65;99333.03;5098787;28;1066;-28
2023/08/06 05:55:54;;;;;;;;;;;;;;;27.50;40.64;99334.22;5098988;28;1057;-27
2023/08/06 05:58:20;;;;;;;;;;;;;;;27.10;44.43;99336.19;5097504;28;1904;-24
2023/08/06 06:00:45;;;;;;;;;;;;;;;27.95;39.55;99325.13;5089069;28;1085;-26
2023/08/06 06:03:11;;;;;;;;;;;;;;;27.42;42.53;99323.69;5098085;28;1085;-26
2023/08/06 06:05:39;;;;;;;;;;;;;;;28.01;39.18;99320.69;5098218;28;1197;-25
2023/08/06 06:08:05;;;;;;;;;;;;;;;27.63;40.27;99317.91;5098186;28;1272;-25
2023/08/06 06:10:31;;;;;;;;;;;;;;;27.16;44.33;99322.84;5098233;28;1992;-28
2023/08/06 06:12:56;;;;;;;;;;;;;;;28.07;39.13;99322.53;5098135;28;1300;-25
2023/08/06 06:15:22;;;;;;;;;;;;;;;27.58;41.39;99328.56;5086333;28;1161;-30
2023/08/06 06:17:47;;;;;;;;;;;;;;;27.91;41.54;99328.50;5098388;28;1113;-24
2023/08/06 06:20:13;;;;;;;;;;;;;;;27.94;39.89;99326.19;5097479;28;1387;-26
2023/08/06 06:22:38;;;;;;;;;;;;;;;27.28;42.84;99328.38;5074003;28;1219;-25
2023/08/06 06:25:04;;;;;;;;;;;;;;;28.14;39.69;99322.44;5097248;28;1272;-29
2023/08/06 06:27:30;;;;;;;;;;;;;;;27.62;41.98;99321.66;5097819;28;1344;-26
2023/08/06 06:29:56;;;;;;;;;;;;;;;27.64;44.48;99329.56;5097280;28;2453;-25
2023/08/06 06:32:21;;;;;;;;;;;;;;;27.95;40.26;99330.53;5097758;28;1272;-27
2023/08/06 06:34:47;;;;;;;;;;;;;;;27.17;44.35;99328.03;5097392;28;1300;-28
2023/08/06 06:37:12;;;;;;;;;;;;;;;28.13;40.43;99330.78;5097855;28;1054;-28
2023/08/06 06:39:38;;;;;;;;;;;;;;;27.69;42.48;99320.81;5083776;28;1202;-25
2023/08/06 06:42:04;;;;;;;;;;;;;;;27.22;45.43;99333.63;5097693;28;1063;-29
2023/08/06 06:44:36;;;;;;;;;;;;;;;28.09;40.69;99322.28;5079638;28;1177;-26
2023/08/06 06:47:01;;;;;;;;;;;;;;;27.49;43.22;99321.78;5097237;28;1101;-25
2023/08/06 06:49:27;;;;;;;;;;;;;;;24.29;50.78;99323.13;5096779;28;1902;-27
2023/08/06 06:51:52;;;;;;;;;;;;;;;25.31;48.61;99318.09;5096944;28;893;-27
2023/08/06 06:54:18;;;;;;;;;;;;;;;26.91;45.69;99327.09;5096731;28;1134;-26
2023/08/06 06:56:44;;;;;;;;;;;;;;;24.84;53.04;99321.50;5097137;28;1422;-27
2023/08/06 06:59:09;;;;;;;;;;;;;;;27.04;45.13;99322.72;5090267;28;2481;-25
2023/08/06 07:01:35;;;;;;;;;;;;;;;24.15;55.56;99313.31;5096854;28;1344;-27
2023/08/06 07:04:04;;;;;;;;;;;;;;;26.51;46.40;99309.25;5095427;28;927;-27
2023/08/06 07:06:30;;;;;;;;;;;;;;;24.33;55.77;99312.81;5096754;28;1426;-26
2023/08/06 07:08:55;;;;;;;;;;;;;;;26.76;45.53;99313.91;5097314;28;1253;-30
2023/08/06 07:11:21;;;;;;;;;;;;;;;24.51;54.97;99316.81;5096908;28;1906;-25
2023/08/06 07:13:46;;;;;;;;;;;;;;;26.67;46.02;99321.44;5097585;28;1339;-24
2023/08/06 07:16:12;;;;;;;;;;;;;;;24.29;54.48;99311.59;5096634;28;1056;-29
2023/08/06 07:18:38;;;;;;;;;;;;;;;26.46;47.31;99312.59;5096710;28;1058;-25
2023/08/06 07:21:03;;;;;;;;;;;;;;;24.42;54.32;99308.94;5095909;28;1240;-25
2023/08/06 07:23:29;;;;;;;;;;;;;;;26.42;47.42;99322.16;5095661;28;1422;-26
2023/08/06 07:25:54;;;;;;;;;;;;;;;24.31;53.35;99320.25;5078729;28;1058;-29
2023/08/06 07:28:20;;;;;;;;;;;;;;;26.15;47.75;99311.44;5096524;28;2218;-27
2023/08/06 07:30:45;;;;;;;;;;;;;;;24.75;51.15;99309.28;5096600;28;1910;-26
2023/08/06 07:33:11;;;;;;;;;;;;;;;26.22;47.88;99306.84;5096411;28;1079;-25
2023/08/06 07:35:37;;;;;;;;;;;;;;;24.61;52.60;99317.28;5096762;28;1023;-24
2023/08/06 07:38:03;;;;;;;;;;;;;;;26.35;47.89;99315.97;5078442;28;1078;-24
2023/08/06 07:40:28;;;;;;;;;;;;;;;24.61;52.86;99319.97;5095785;28;888;-23
2023/08/06 07:42:54;;;;;;;;;;;;;;;26.28;47.91;99329.44;5095897;28;1097;-25
2023/08/06 07:45:19;;;;;;;;;;;;;;;24.41;53.93;99327.94;5096498;28;1077;-24
2023/08/06 07:47:45;;;;;;;;;;;;;;;26.44;47.08;99324.66;5095880;28;1062;-29
2023/08/06 07:50:11;;;;;;;;;;;;;;;24.31;54.84;99323.78;5094492;28;1909;-30
2023/08/06 07:52:36;;;;;;;;;;;;;;;26.38;47.53;99310.97;5096184;28;1361;-26
2023/08/06 07:55:04;;;;;;;;;;;;;;;24.37;54.90;99315.94;5096524;28;1035;-26
2023/08/06 07:57:30;;;;;;;;;;;;;;;26.40;47.09;99314.28;5095671;28;1038;-25
2023/08/06 07:59:56;;;;;;;;;;;;;;;24.42;55.76;99316.19;5095591;28;2255;-26
2023/08/06 08:02:22;;;;;;;;;;;;;;;26.70;47.06;99312.91;5096195;28;1147;-24
2023/08/06 08:04:47;;;;;;;;;;;;;;;24.35;55.56;99318.84;5091795;28;951;-24
2023/08/06 08:07:13;;;;;;;;;;;;;;;26.51;47.41;99323.56;5096544;28;1169;-25
2023/08/06 08:09:38;;;;;;;;;;;;;;;24.51;55.26;99324.88;5094239;28;1918;-26
2023/08/06 08:12:04;;;;;;;;;;;;;;;26.52;47.26;99329.81;5084258;28;1107;-24
2023/08/06 08:14:35;;;;;;;;;;;;;;;24.50;55.70;99329.47;5095295;28;1066;-25
2023/08/06 08:17:02;;;;;;;;;;;;;;;26.75;46.92;99333.84;5084557;28;1069;-27
2023/08/06 08:19:28;;;;;;;;;;;;;;;24.43;56.22;99331.28;5095445;28;1150;-28
2023/08/06 08:21:54;;;;;;;;;;;;;;;26.80;46.64;99330.50;5095706;28;1311;-28
2023/08/06 08:24:20;;;;;;;;;;;;;;;24.37;55.86;99327.53;5095754;28;1457;-28
2023/08/06 08:26:45;;;;;;;;;;;;;;;26.68;46.77;99324.94;5095326;28;1374;-25
2023/08/06 08:29:11;;;;;;;;;;;;;;;24.38;56.20;99323.81;5088093;28;1907;-24
2023/08/06 08:31:39;;;;;;;;;;;;;;;26.67;46.73;99326.84;5091373;28;1930;-26
2023/08/06 08:34:05;;;;;;;;;;;;;;;24.47;55.94;99316.41;5095933;28;1332;-26
2023/08/06 08:36:31;;;;;;;;;;;;;;;26.82;46.29;99302.28;5102216;28;1430;-26
2023/08/06 08:38:56;;;;;;;;;;;;;;;24.60;55.33;99309.44;5101124;28;1441;-25
2023/08/06 08:41:22;;;;;;;;;;;;;;;26.93;45.70;99292.66;5099532;28;1386;-27
2023/08/06 08:43:48;;;;;;;;;;;;;;;24.05;54.95;99290.34;5102277;28;1113;-28
2023/08/06 08:46:14;;;;;;;;;;;;;;;26.20;47.41;99291.91;5084333;28;1035;-25
2023/08/06 08:48:40;;;;;;;;;;;;;;;24.46;54.15;99294.09;5102506;28;1022;-27
2023/08/06 08:51:05;;;;;;;;;;;;;;;26.51;47.21;99291.22;5101812;28;1972;-29
2023/08/06 08:53:31;;;;;;;;;;;;;;;24.51;54.57;99300.69;5102143;28;1134;-26
2023/08/06 08:55:56;;;;;;;;;;;;;;;26.59;47.05;99298.22;5102366;28;1035;-24
2023/08/06 08:58:22;;;;;;;;;;;;;;;24.50;54.48;99296.38;5101803;28;2416;-28
2023/08/06 09:00:50;;;;;;;;;;;;;;;26.56;47.07;99290.56;5101969;28;1177;-28
2023/08/06 09:03:16;;;;;;;;;;;;;;;24.49;55.25;99300.09;5083115;28;1099;-27
2023/08/06 09:05:43;;;;;;;;;;;;;;;26.65;46.71;99294.69;5101374;28;1011;-26
2023/08/06 09:08:09;;;;;;;;;;;;;;;24.30;53.96;99286.34;5083870;28;1236;-28
2023/08/06 09:10:35;;;;;;;;;;;;;;;26.26;47.76;99291.06;5101944;28;1898;-26
2023/08/06 09:13:03;;;;;;;;;;;;;;;24.57;52.12;99289.16;5084085;28;1062;-27
2023/08/06 09:15:29;;;;;;;;;;;;;;;26.12;48.25;99285.75;5083796;28;1051;-26
2023/08/06 09:17:55;;;;;;;;;;;;;;;24.77;51.93;99280.31;5101716;28;1025;-26
2023/08/06 09:20:20;;;;;;;;;;;;;;;26.40;47.38;99273.00;5102306;28;1047;-26
2023/08/06 09:22:47;;;;;;;;;;;;;;;24.80;51.45;99255.72;5102111;28;1025;-26
2023/08/06 09:25:20;;;;;;;;;;;;;;;25.50;49.26;99245.63;5101878;28;1102;-27
2023/08/06 09:27:46;;;;;;;;;;;;;;;25.42;49.71;99244.00;5101419;28;1011;-27
2023/08/06 09:30:12;;;;;;;;;;;;;;;26.03;49.02;99242.03;5095283;28;2530;-25
2023/08/06 09:32:53;;;;;;;;;;;;;;;25.53;49.80;99246.03;5084276;28;1111;-26
2023/08/06 09:35:18;;;;;;;;;;;;;;;25.39;51.07;99239.03;5102199;28;991;-28
2023/08/06 09:37:44;;;;;;;;;;;;;;;26.41;47.23;99245.84;5101876;28;1154;-29
2023/08/06 09:40:30;;;;;;;;;;;;;;;24.66;54.99;99242.22;5101295;28;1058;-27
2023/08/06 09:42:56;;;;;;;;;;;;;;;26.26;48.52;99247.94;5087905;28;1889;-27
2023/08/06 09:45:22;;;;;;;;;;;;;;;25.70;50.33;99242.94;5101843;28;1010;-25
2023/08/06 09:47:50;;;;;;;;;;;;;;;26.37;48.04;99241.94;5097562;28;1054;-26
2023/08/06 09:50:19;;;;;;;;;;;;;;;24.38;55.85;99237.81;5098484;28;1977;-27
2023/08/06 09:52:44;;;;;;;;;;;;;;;26.84;46.46;99242.69;5098096;28;901;-26
2023/08/06 09:55:13;;;;;;;;;;;;;;;24.91;53.44;99238.16;5098527;28;1022;-24
2023/08/06 09:57:42;;;;;;;;;;;;;;;27.09;45.48;99233.84;5098604;28;1129;-25
2023/08/06 10:00:09;;;;;;;;;;;;;;;24.32;56.01;99227.88;5088944;28;2464;-28
2023/08/06 10:02:41;;;;;;;;;;;;;;;26.75;46.32;99220.53;5098523;28;975;-26
2023/08/06 10:05:10;;;;;;;;;;;;;;;24.03;55.90;99232.47;5098131;28;1322;-26
2023/08/06 10:07:35;;;;;;;;;;;;;;;26.28;47.81;99227.84;5098323;28;1111;-26
2023/08/06 10:10:01;;;;;;;;;;;;;;;24.49;54.63;99217.56;5098325;28;1973;-29
2023/08/06 10:12:28;;;;;;;;;;;;;;;26.71;47.05;99222.84;5079850;28;1188;-25
2023/08/06 10:14:54;;;;;;;;;;;;;;;24.25;52.58;99227.84;5098421;28;1130;-27
2023/08/06 10:17:20;;;;;;;;;;;;;;;26.02;47.95;99208.06;5079932;28;903;-25
2023/08/06 10:19:46;;;;;;;;;;;;;;;25.10;50.67;99201.56;5079133;28;1090;-25
2023/08/06 10:22:15;;;;;;;;;;;;;;;25.79;48.68;99200.47;5098088;28;1104;-26
2023/08/06 10:24:57;;;;;;;;;;;;;;;25.39;49.46;99193.25;5098151;28;1094;-26
2023/08/06 10:27:32;;;;;;;;;;;;;;;25.35;50.80;99197.41;5097496;28;1093;-26
2023/08/06 10:30:17;;;;;;;;;;;;;;;25.71;48.61;99189.91;5094669;28;2336;-26
2023/08/06 10:32:49;;;;;;;;;;;;;;;25.22;50.88;99188.31;5098010;28;1022;-28
2023/08/06 10:35:30;;;;;;;;;;;;;;;25.94;48.84;99181.34;5097668;28;1046;-26
2023/08/06 10:38:00;;;;;;;;;;;;;;;26.21;48.44;99183.09;5097616;28;1034;-26
2023/08/06 10:40:26;;;;;;;;;;;;;;;25.19;50.04;99180.66;5077464;28;1329;-26
2023/08/06 10:42:51;;;;;;;;;;;;;;;25.05;51.10;99172.59;5097412;28;1034;-25
2023/08/06 10:45:18;;;;;;;;;;;;;;;26.46;48.12;99166.19;5097840;28;1145;-24
2023/08/06 10:47:43;;;;;;;;;;;;;;;24.14;56.45;99161.22;5097726;28;990;-28
2023/08/06 10:50:17;;;;;;;;;;;;;;;26.66;46.42;99163.34;5097239;28;1976;-29
2023/08/06 10:52:46;;;;;;;;;;;;;;;24.69;54.82;99176.47;5097159;28;1025;-29
2023/08/06 10:55:12;;;;;;;;;;;;;;;26.94;46.33;99175.59;5096898;28;1089;-28
2023/08/06 10:57:38;;;;;;;;;;;;;;;24.15;55.46;99162.88;5097325;28;1041;-29
2023/08/06 11:00:04;;;;;;;;;;;;;;;26.46;47.03;99167.00;5096831;28;1867;-25
2023/08/06 11:02:32;;;;;;;;;;;;;;;24.15;52.55;99160.19;5096961;28;951;-27
2023/08/06 11:04:58;;;;;;;;;;;;;;;26.00;48.15;99163.47;5078817;28;1225;-28
2023/08/06 11:07:28;;;;;;;;;;;;;;;24.72;51.34;99167.16;5078935;28;1084;-25
2023/08/06 11:10:01;;;;;;;;;;;;;;;25.90;48.81;99161.25;5096541;28;1918;-27
2023/08/06 11:12:27;;;;;;;;;;;;;;;24.96;50.66;99157.69;5097113;28;1051;-27
2023/08/06 11:14:53;;;;;;;;;;;;;;;25.18;52.04;99138.63;5096776;28;1528;-27
2023/08/06 11:17:18;;;;;;;;;;;;;;;26.19;48.75;99137.50;5097107;28;1061;-25
2023/08/06 11:19:44;;;;;;;;;;;;;;;24.45;55.63;99147.28;5096601;28;1036;-24
2023/08/06 11:22:10;;;;;;;;;;;;;;;26.82;46.84;99158.44;5096686;28;1149;-25
2023/08/06 11:24:37;;;;;;;;;;;;;;;24.07;57.13;99153.97;5096682;28;1070;-26
2023/08/06 11:27:02;;;;;;;;;;;;;;;26.85;47.60;99160.72;5096457;28;987;-32
2023/08/06 11:29:28;;;;;;;;;;;;;;;26.74;49.38;99154.16;5093441;28;1824;-27
2023/08/06 11:31:53;;;;;;;;;;;;;;;26.18;50.76;99143.91;5096887;28;1906;-26
2023/08/06 11:34:19;;;;;;;;;;;;;;;26.48;52.39;99134.41;5078057;28;1280;-29
2023/08/06 11:36:44;;;;;;;;;;;;;;;27.73;48.44;99104.00;5096446;28;1074;-31
2023/08/06 11:39:10;;;;;;;;;;;;;;;26.84;51.07;99088.94;5058604;28;1025;-27
2023/08/06 11:41:37;;;;;;;;;;;;;;;26.51;51.77;99112.41;5071223;28;1016;-28
2023/08/06 11:44:03;;;;;;;;;;;;;;;26.21;51.92;99139.97;5082968;28;1155;-27
2023/08/06 11:46:29;;;;;;;;;;;;;;;27.16;52.21;99153.63;5095938;28;1034;-28
2023/08/06 11:48:58;;;;;;;;;;;;;;;27.20;51.41;99162.94;5097183;28;1307;-28
2023/08/06 11:51:26;;;;;;;;;;;;;;;26.40;52.97;99170.56;5095442;28;1998;-26
2023/08/06 11:53:55;;;;;;;;;;;;;;;26.49;54.33;99188.13;5091303;28;1070;-28
2023/08/06 11:56:21;;;;;;;;;;;;;;;27.75;53.78;99282.09;5095956;28;1352;-29
2023/08/06 11:58:47;;;;;;;;;;;;;;;26.78;54.00;99360.38;5077804;28;2348;-29
2023/08/06 12:01:13;;;;;;;;;;;;;;;26.08;53.13;99431.88;5095988;28;1331;-24
2023/08/06 12:03:39;;;;;;;;;;;;;;;26.67;53.64;99336.78;5095851;28;1323;-27
2023/08/06 12:06:05;;;;;;;;;;;;;;;26.64;56.44;99357.75;5095676;28;1018;-27
2023/08/06 12:08:30;;;;;;;;;;;;;;;27.45;51.96;99367.31;5095710;28;1126;-27
2023/08/06 12:10:56;;;;;;;;;;;;;;;27.01;50.94;99365.28;5095231;28;1905;-27
2023/08/06 12:13:21;;;;;;;;;;;;;;;25.97;55.93;99353.34;5077767;28;1426;-25
2023/08/06 12:15:47;;;;;;;;;;;;;;;27.57;51.87;99334.19;5096255;28;1273;-29
2023/08/06 12:18:12;;;;;;;;;;;;;;;27.40;52.11;99313.13;5087710;28;937;-29
2023/08/06 12:20:38;;;;;;;;;;;;;;;26.18;55.18;99289.44;5095649;28;1128;-27
2023/08/06 12:23:04;;;;;;;;;;;;;;;27.35;50.44;99284.09;5095821;28;1240;-25
2023/08/06 12:25:29;;;;;;;;;;;;;;;27.20;52.15;99289.81;5082615;28;1130;-24
2023/08/06 12:27:55;;;;;;;;;;;;;;;24.04;57.39;99290.53;5095541;28;1106;-27
2023/08/06 12:30:20;;;;;;;;;;;;;;;26.14;53.87;99325.97;5093659;28;2617;-26
2023/08/06 12:32:46;;;;;;;;;;;;;;;26.90;53.17;99333.56;5095034;28;1061;-24
2023/08/06 12:35:12;;;;;;;;;;;;;;;24.79;55.44;99314.03;5095549;28;1220;-23
2023/08/06 12:37:40;;;;;;;;;;;;;;;25.49;56.14;99298.63;5095568;28;1146;-26
2023/08/06 12:40:06;;;;;;;;;;;;;;;26.84;54.40;99312.84;5095607;28;1039;-25
2023/08/06 12:42:31;;;;;;;;;;;;;;;27.33;51.61;99286.16;5094732;28;927;-25
2023/08/06 12:44:57;;;;;;;;;;;;;;;24.12;60.65;99274.25;5095979;28;1205;-22
2023/08/06 12:47:22;;;;;;;;;;;;;;;26.31;52.80;99280.47;5095489;28;1046;-29
2023/08/06 12:49:49;;;;;;;;;;;;;;;24.27;57.40;99297.50;5095824;28;1969;-24
2023/08/06 12:52:16;;;;;;;;;;;;;;;26.02;52.02;99299.66;5095474;28;1084;-26
2023/08/06 12:54:42;;;;;;;;;;;;;;;26.96;51.59;99300.31;5094711;28;873;-23